createdAt,value
2019-05-20T00:00:23.598Z,15.30
2019-05-20T00:02:53.388Z,12.35
2019-05-20T00:05:22.813Z,12.15
2019-05-20T00:07:52.244Z,11.73
2019-05-20T00:10:21.730Z,13.85
2019-05-20T00:12:51.261Z,13.53
2019-05-20T00:15:20.712Z,12.53
2019-05-20T00:17:50.140Z,11.88
2019-05-20T00:20:19.742Z,16.83
2019-05-20T00:22:49.256Z,15.43
2019-05-20T00:25:18.674Z,14.95
2019-05-20T00:27:48.074Z,14.30
2019-05-20T00:30:19.852Z,11.65
2019-05-20T00:32:49.317Z,13.23
2019-05-20T00:35:18.776Z,13.45
2019-05-20T00:37:48.386Z,13.55
2019-05-20T00:40:17.804Z,14.80
2019-05-20T00:42:47.239Z,16.70
2019-05-20T00:45:17.277Z,11.83
2019-05-20T00:47:46.745Z,15.10
2019-05-20T00:50:16.684Z,14.00
2019-05-20T00:52:46.140Z,14.73
2019-05-20T00:55:24.491Z,12.10
2019-05-20T00:57:53.982Z,16.57
2019-05-20T01:00:23.546Z,13.32
2019-05-20T01:02:56.925Z,16.27
2019-05-20T01:05:24.404Z,12.85
2019-05-20T01:07:53.864Z,13.58
2019-05-20T01:10:23.357Z,16.17
2019-05-20T01:12:53.231Z,14.87
2019-05-20T01:15:22.782Z,11.40
2019-05-20T01:17:52.368Z,13.62
2019-05-20T01:20:21.810Z,16.75
2019-05-20T01:22:51.239Z,13.55
2019-05-20T01:25:20.668Z,13.85
2019-05-20T01:27:50.237Z,15.60
2019-05-20T01:30:21.543Z,17.85
2019-05-20T01:32:50.952Z,15.63
2019-05-20T01:35:20.443Z,21.42
2019-05-20T01:37:50.143Z,14.15
2019-05-20T01:40:19.543Z,14.23
2019-05-20T01:42:48.963Z,16.30
2019-05-20T01:45:18.824Z,17.20
2019-05-20T01:47:48.256Z,14.13
2019-05-20T01:50:17.732Z,12.67
2019-05-20T01:52:47.267Z,11.83
2019-05-20T01:55:17.209Z,15.03
2019-05-20T01:57:46.804Z,16.57
2019-05-20T02:00:16.563Z,15.10
2019-05-20T02:02:46.154Z,13.93
2019-05-20T02:05:16.627Z,13.20
2019-05-20T02:07:46.088Z,14.15
2019-05-20T02:10:16.683Z,18.82
2019-05-20T02:12:46.227Z,16.77
2019-05-20T02:15:28.683Z,15.65
2019-05-20T02:17:58.163Z,17.10
2019-05-20T02:20:27.592Z,19.37
2019-05-20T02:23:14.388Z,15.40
2019-05-20T02:25:46.820Z,17.10
2019-05-20T02:28:16.541Z,15.60
2019-05-20T02:30:45.962Z,18.15
2019-05-20T02:33:15.423Z,19.80
2019-05-20T02:35:45.342Z,17.27
2019-05-20T02:38:14.775Z,15.23
2019-05-20T02:40:45.157Z,17.17
2019-05-20T02:43:14.771Z,16.15
2019-05-20T02:45:44.208Z,17.70
2019-05-20T02:48:13.824Z,18.90
2019-05-20T02:50:43.353Z,19.30
2019-05-20T02:53:12.779Z,16.33
2019-05-20T02:55:42.229Z,16.35
2019-05-20T02:58:11.681Z,24.15
2019-05-20T03:00:41.242Z,17.37
2019-05-20T03:03:11.489Z,16.27
2019-05-20T03:05:40.972Z,18.32
2019-05-20T03:08:10.438Z,19.80
2019-05-20T03:10:40.057Z,16.20
2019-05-20T03:13:09.545Z,16.65
2019-05-20T03:15:39.006Z,18.65
2019-05-20T03:18:08.830Z,14.95
2019-05-20T03:20:38.329Z,16.12
2019-05-20T03:23:07.915Z,20.27
2019-05-20T03:25:37.405Z,17.43
2019-05-20T03:28:06.864Z,15.40
2019-05-20T03:30:36.379Z,14.93
2019-05-20T03:33:05.935Z,16.80
2019-05-20T03:35:35.430Z,15.93
2019-05-20T03:38:04.833Z,14.98
2019-05-20T03:40:34.315Z,15.80
2019-05-20T03:43:03.854Z,14.47
2019-05-20T03:45:33.330Z,14.10
2019-05-20T03:48:02.846Z,20.05
2019-05-20T03:50:32.398Z,17.12
2019-05-20T03:53:01.950Z,14.15
2019-05-20T03:55:31.800Z,14.30
2019-05-20T03:58:01.254Z,12.50
2019-05-20T04:00:45.139Z,13.28
2019-05-20T04:03:15.183Z,13.48
2019-05-20T04:05:44.939Z,11.70
2019-05-20T04:08:14.518Z,11.80
2019-05-20T04:10:43.979Z,12.00
2019-05-20T04:13:13.868Z,12.78
2019-05-20T04:15:43.366Z,13.18
2019-05-20T04:18:12.971Z,14.50
2019-05-20T04:20:42.598Z,12.70
2019-05-20T04:23:12.098Z,13.88
2019-05-20T04:25:41.562Z,12.80
2019-05-20T04:28:11.408Z,12.93
2019-05-20T04:30:40.967Z,13.17
2019-05-20T04:33:10.807Z,11.30
2019-05-20T04:35:40.319Z,15.37
2019-05-20T04:38:09.906Z,13.55
2019-05-20T04:40:39.434Z,14.68
2019-05-20T04:43:08.916Z,13.88
2019-05-20T04:45:38.468Z,15.20
2019-05-20T04:48:08.157Z,13.55
2019-05-20T04:50:37.660Z,11.30
2019-05-20T04:53:07.462Z,11.93
2019-05-20T04:55:36.953Z,11.83
2019-05-20T04:58:06.599Z,9.90
2019-05-20T05:01:02.334Z,12.17
2019-05-20T05:03:31.873Z,8.95
2019-05-20T05:06:01.619Z,13.98
2019-05-20T05:08:31.111Z,10.53
2019-05-20T05:11:00.663Z,24.55
2019-05-20T05:13:30.741Z,14.13
2019-05-20T05:16:00.541Z,10.70
2019-05-20T05:18:30.156Z,12.25
2019-05-20T05:20:59.930Z,9.33
2019-05-20T05:23:29.606Z,13.30
2019-05-20T05:25:59.541Z,8.65
2019-05-20T05:28:29.011Z,12.03
2019-05-20T05:30:58.982Z,10.53
2019-05-20T05:33:28.516Z,13.70
2019-05-20T05:35:58.764Z,9.00
2019-05-20T05:38:28.635Z,10.38
2019-05-20T05:40:58.210Z,13.75
2019-05-20T05:43:29.254Z,13.93
2019-05-20T05:45:59.092Z,12.37
2019-05-20T05:48:28.590Z,10.83
2019-05-20T05:50:58.088Z,13.00
2019-05-20T05:53:27.751Z,11.25
2019-05-20T05:55:57.202Z,12.95
2019-05-20T05:58:26.767Z,13.18
2019-05-20T06:00:56.380Z,8.60
2019-05-20T06:03:25.945Z,13.95
2019-05-20T06:06:10.745Z,9.08
2019-05-20T06:08:26.733Z,15.08
2019-05-20T06:10:56.312Z,7.87
2019-05-20T06:13:25.865Z,11.95
2019-05-20T06:15:55.599Z,10.20
2019-05-20T06:18:25.056Z,11.12
2019-05-20T06:20:54.597Z,8.23
2019-05-20T06:23:24.270Z,10.58
2019-05-20T06:25:53.797Z,16.47
2019-05-20T06:28:23.547Z,19.07
2019-05-20T06:30:53.127Z,9.40
2019-05-20T06:33:22.700Z,7.70
2019-05-20T06:35:52.477Z,7.72
2019-05-20T06:38:41.252Z,9.55
2019-05-20T06:41:11.059Z,8.05
2019-05-20T06:43:40.551Z,7.70
2019-05-20T06:46:10.440Z,8.67
2019-05-20T06:48:39.983Z,14.28
2019-05-20T06:51:09.513Z,9.68
2019-05-20T06:53:39.143Z,5.83
2019-05-20T06:56:08.653Z,8.80
2019-05-20T06:58:38.266Z,9.00
2019-05-20T07:01:07.942Z,7.15
2019-05-20T07:03:37.483Z,8.10
2019-05-20T07:06:07.275Z,7.30
2019-05-20T07:08:36.822Z,6.53
2019-05-20T07:11:07.617Z,10.40
2019-05-20T07:13:37.182Z,11.25
2019-05-20T07:16:06.955Z,17.90
2019-05-20T07:18:36.439Z,11.33
2019-05-20T07:21:05.936Z,10.80
2019-05-20T07:23:35.538Z,5.83
2019-05-20T07:26:05.004Z,9.00
2019-05-20T07:28:34.586Z,12.73
2019-05-20T07:31:04.009Z,15.08
2019-05-20T07:33:33.676Z,10.32
2019-05-20T07:36:03.209Z,10.70
2019-05-20T07:38:33.078Z,11.12
2019-05-20T07:41:02.912Z,13.53
2019-05-20T07:43:32.454Z,8.93
2019-05-20T07:46:03.245Z,12.75
2019-05-20T07:48:33.529Z,8.03
2019-05-20T07:51:03.887Z,12.43
2019-05-20T07:53:34.232Z,11.75
2019-05-20T07:56:12.010Z,10.65
2019-05-20T07:58:44.827Z,18.17
2019-05-20T08:01:14.693Z,10.75
2019-05-20T08:03:44.140Z,6.45
2019-05-20T08:06:14.098Z,10.13
2019-05-20T08:08:43.616Z,6.90
2019-05-20T08:11:13.238Z,6.85
2019-05-20T08:13:42.730Z,14.58
2019-05-20T08:16:12.240Z,14.00
2019-05-20T08:18:42.406Z,10.90
2019-05-20T08:21:12.165Z,10.55
2019-05-20T08:23:41.612Z,9.40
2019-05-20T08:26:11.498Z,7.67
2019-05-20T08:28:40.990Z,8.47
2019-05-20T08:31:10.441Z,9.27
2019-05-20T08:33:40.038Z,12.50
2019-05-20T08:36:09.595Z,9.50
2019-05-20T08:38:38.982Z,10.48
2019-05-20T08:41:08.462Z,10.83
2019-05-20T08:43:38.075Z,11.20
2019-05-20T08:46:07.518Z,7.12
2019-05-20T08:48:37.022Z,11.55
2019-05-20T08:51:06.692Z,6.70
2019-05-20T08:53:36.120Z,7.78
2019-05-20T08:56:05.573Z,7.65
2019-05-20T08:58:35.224Z,8.15
2019-05-20T09:01:04.791Z,9.43
2019-05-20T09:03:34.404Z,13.85
2019-05-20T09:06:03.984Z,12.28
2019-05-20T09:08:33.476Z,4.95
2019-05-20T09:11:02.937Z,10.93
2019-05-20T09:13:32.658Z,6.78
2019-05-20T09:16:02.137Z,7.33
2019-05-20T09:18:31.721Z,8.93
2019-05-20T09:21:01.319Z,12.73
2019-05-20T09:23:30.798Z,8.60
2019-05-20T09:26:00.287Z,12.33
2019-05-20T09:28:29.929Z,11.95
2019-05-20T09:30:59.558Z,7.62
2019-05-20T09:33:30.735Z,8.38
2019-05-20T09:36:01.447Z,7.60
2019-05-20T09:38:30.854Z,7.08
2019-05-20T09:41:00.380Z,8.15
2019-05-20T09:43:30.357Z,12.23
2019-05-20T09:46:07.314Z,10.18
2019-05-20T09:48:30.924Z,8.68
2019-05-20T09:51:00.379Z,10.55
2019-05-20T09:53:29.868Z,7.45
2019-05-20T09:55:59.431Z,8.70
2019-05-20T09:58:28.900Z,10.53
2019-05-20T10:00:58.486Z,11.22
2019-05-20T10:03:27.952Z,8.43
2019-05-20T10:05:57.450Z,11.12
2019-05-20T10:08:37.031Z,7.35
2019-05-20T10:10:59.694Z,9.08
2019-05-20T10:13:29.655Z,8.28
2019-05-20T10:15:59.208Z,14.15
2019-05-20T10:18:37.408Z,11.10
2019-05-20T10:21:00.109Z,7.93
2019-05-20T10:23:29.607Z,12.07
2019-05-20T10:25:59.168Z,6.60
2019-05-20T10:28:29.080Z,6.45
2019-05-20T10:30:58.552Z,7.53
2019-05-20T10:33:28.134Z,9.40
2019-05-20T10:35:58.419Z,7.30
2019-05-20T10:38:27.938Z,9.98
2019-05-20T10:40:57.675Z,8.98
2019-05-20T10:43:27.098Z,10.65
2019-05-20T10:45:56.595Z,9.80
2019-05-20T10:48:26.018Z,8.53
2019-05-20T10:50:55.608Z,6.58
2019-05-20T10:53:28.270Z,7.97
2019-05-20T10:55:57.392Z,9.68
2019-05-20T10:58:27.190Z,9.75
2019-05-20T11:01:02.450Z,7.83
2019-05-20T11:03:27.675Z,12.25
2019-05-20T11:05:57.077Z,10.40
2019-05-20T11:08:26.562Z,10.60
2019-05-20T11:10:56.309Z,9.75
2019-05-20T11:13:25.917Z,7.72
2019-05-20T11:15:55.761Z,5.55
2019-05-20T11:18:25.222Z,9.10
2019-05-20T11:20:54.700Z,6.92
2019-05-20T11:23:24.525Z,9.20
2019-05-20T11:25:53.887Z,9.60
2019-05-20T11:28:23.620Z,6.12
2019-05-20T11:30:53.518Z,6.67
2019-05-20T11:33:23.256Z,10.82
2019-05-20T11:35:52.697Z,10.55
2019-05-20T11:38:22.487Z,7.33
2019-05-20T11:40:51.965Z,10.00
2019-05-20T11:43:21.395Z,8.65
2019-05-20T11:45:51.164Z,13.08
2019-05-20T11:48:21.043Z,10.13
2019-05-20T11:50:50.688Z,11.70
2019-05-20T11:53:20.103Z,12.00
2019-05-20T11:55:49.948Z,14.60
2019-05-20T11:58:19.460Z,13.78
2019-05-20T12:00:48.943Z,14.60
2019-05-20T12:03:18.695Z,13.83
2019-05-20T12:05:48.335Z,16.27
2019-05-20T12:08:18.095Z,13.13
2019-05-20T12:10:47.567Z,15.00
2019-05-20T12:13:17.038Z,18.27
2019-05-20T12:15:46.694Z,19.00
2019-05-20T12:18:16.282Z,15.70
2019-05-20T12:20:45.716Z,17.32
2019-05-20T12:23:15.349Z,17.40
2019-05-20T12:25:44.895Z,16.80
2019-05-20T12:28:14.348Z,15.97
2019-05-20T12:30:44.002Z,17.48
2019-05-20T12:33:18.932Z,17.30
2019-05-20T12:35:44.629Z,23.52
2019-05-20T12:38:14.084Z,16.40
2019-05-20T12:40:43.880Z,29.82
2019-05-20T12:43:13.409Z,22.65
2019-05-20T12:45:42.893Z,16.12
2019-05-20T12:48:12.344Z,21.60
2019-05-20T12:50:41.812Z,19.67
2019-05-20T12:53:11.287Z,14.65
2019-05-20T12:55:42.165Z,21.07
2019-05-20T12:58:11.550Z,15.83
2019-05-20T13:00:41.039Z,16.62
2019-05-20T13:03:10.580Z,17.37
2019-05-20T13:05:40.077Z,17.27
2019-05-20T13:08:09.611Z,16.42
2019-05-20T13:10:39.319Z,16.65
2019-05-20T13:13:08.837Z,15.83
2019-05-20T13:15:38.307Z,17.32
2019-05-20T13:18:07.869Z,16.73
2019-05-20T13:20:37.333Z,15.05
2019-05-20T13:23:09.256Z,17.77
2019-05-20T13:25:37.897Z,18.98
2019-05-20T13:28:07.603Z,15.68
2019-05-20T13:30:37.157Z,15.67
2019-05-20T13:33:06.639Z,14.00
2019-05-20T13:35:36.514Z,17.40
2019-05-20T13:38:05.975Z,13.28
2019-05-20T13:40:45.673Z,13.60
2019-05-20T13:43:06.519Z,12.53
2019-05-20T13:45:36.199Z,16.07
2019-05-20T13:48:05.685Z,14.63
2019-05-20T13:50:35.156Z,11.37
2019-05-20T13:53:04.910Z,12.90
2019-05-20T13:55:34.361Z,14.53
2019-05-20T13:58:03.850Z,13.87
2019-05-20T14:00:33.509Z,11.08
2019-05-20T14:03:02.973Z,17.23
2019-05-20T14:05:32.465Z,12.55
2019-05-20T14:08:02.099Z,17.45
2019-05-20T14:10:31.660Z,12.82
2019-05-20T14:13:01.211Z,11.10
2019-05-20T14:15:30.669Z,11.80
2019-05-20T14:18:00.122Z,12.10
2019-05-20T14:20:29.536Z,10.35
2019-05-20T14:22:59.051Z,9.55
2019-05-20T14:25:29.300Z,10.53
2019-05-20T14:27:58.992Z,9.63
2019-05-20T14:30:28.472Z,10.85
2019-05-20T14:32:58.269Z,13.90
2019-05-20T14:35:27.723Z,10.80
2019-05-20T14:37:57.501Z,8.10
2019-05-20T14:40:27.348Z,11.65
2019-05-20T14:42:57.040Z,10.30
2019-05-20T14:45:26.532Z,9.40
2019-05-20T14:47:55.981Z,10.72
2019-05-20T14:50:25.677Z,12.60
2019-05-20T14:52:55.143Z,11.80
2019-05-20T14:55:24.652Z,17.82
2019-05-20T14:57:54.330Z,9.05
2019-05-20T15:00:23.861Z,8.33
2019-05-20T15:02:53.271Z,12.00
2019-05-20T15:05:22.987Z,9.25
2019-05-20T15:07:52.482Z,13.98
2019-05-20T15:10:21.975Z,9.93
2019-05-20T15:12:51.512Z,9.48
2019-05-20T15:15:20.964Z,12.45
2019-05-20T15:17:50.445Z,11.28
2019-05-20T15:20:20.215Z,15.68
2019-05-20T15:22:49.645Z,13.93
2019-05-20T15:25:19.124Z,8.78
2019-05-20T15:27:49.867Z,8.95
2019-05-20T15:30:19.573Z,10.75
2019-05-20T15:32:49.507Z,10.20
2019-05-20T15:35:19.061Z,9.83
2019-05-20T15:37:48.694Z,16.90
2019-05-20T15:40:18.354Z,10.87
2019-05-20T15:42:48.154Z,10.43
2019-05-20T15:45:17.570Z,12.13
2019-05-20T15:47:47.036Z,11.97
2019-05-20T15:50:17.393Z,11.70
2019-05-20T15:52:46.930Z,9.80
2019-05-20T15:55:16.516Z,10.95
2019-05-20T15:57:45.991Z,11.63
2019-05-20T16:00:16.072Z,10.00
2019-05-20T16:02:45.737Z,12.33
2019-05-20T16:05:15.223Z,12.25
2019-05-20T16:07:44.662Z,12.40
2019-05-20T16:10:14.465Z,14.63
2019-05-20T16:12:43.944Z,14.38
2019-05-20T16:15:14.738Z,9.88
2019-05-20T16:17:47.925Z,13.85
2019-05-20T16:20:15.562Z,12.60
2019-05-20T16:22:45.899Z,11.27
2019-05-20T16:25:15.638Z,11.63
2019-05-20T16:27:45.124Z,12.60
2019-05-20T16:30:14.856Z,11.85
2019-05-20T16:32:44.356Z,12.82
2019-05-20T16:35:13.825Z,16.57
2019-05-20T16:37:43.496Z,13.58
2019-05-20T16:40:14.252Z,13.15
2019-05-20T16:42:43.866Z,16.65
2019-05-20T16:45:14.528Z,14.70
2019-05-20T16:47:43.968Z,15.25
2019-05-20T16:50:13.542Z,13.53
2019-05-20T16:52:42.963Z,16.40
2019-05-20T16:55:14.236Z,17.90
2019-05-20T16:57:43.704Z,18.60
2019-05-20T17:00:29.887Z,15.65
2019-05-20T17:02:45.960Z,22.17
2019-05-20T17:05:15.739Z,14.85
2019-05-20T17:07:45.162Z,22.50
2019-05-20T17:10:14.737Z,19.62
2019-05-20T17:12:44.460Z,19.87
2019-05-20T17:15:14.088Z,16.70
2019-05-20T17:17:43.883Z,21.07
2019-05-20T17:20:13.569Z,16.52
2019-05-20T17:22:43.271Z,19.27
2019-05-20T17:25:13.448Z,19.37
2019-05-20T17:27:42.908Z,21.75
2019-05-20T17:30:13.505Z,17.90
2019-05-20T17:32:43.196Z,21.02
2019-05-20T17:35:13.297Z,19.65
2019-05-20T17:37:42.756Z,23.07
2019-05-20T17:40:12.698Z,21.60
2019-05-20T17:42:42.192Z,26.75
2019-05-20T17:45:12.179Z,25.27
2019-05-20T17:47:41.613Z,21.10
2019-05-20T17:50:12.301Z,20.85
2019-05-20T17:52:41.775Z,24.63
2019-05-20T17:55:11.289Z,27.60
2019-05-20T17:57:40.928Z,22.10
2019-05-20T18:00:13.494Z,20.97
2019-05-20T18:02:42.960Z,19.23
2019-05-20T18:05:14.873Z,18.67
2019-05-20T18:07:43.881Z,20.80
2019-05-20T18:10:13.797Z,22.52
2019-05-20T18:12:43.215Z,26.27
2019-05-20T18:15:13.550Z,25.57
2019-05-20T18:17:43.057Z,24.60
2019-05-20T18:20:12.824Z,22.98
2019-05-20T18:22:42.405Z,26.68
2019-05-20T18:25:12.200Z,23.15
2019-05-20T18:27:41.680Z,26.27
2019-05-20T18:30:11.791Z,30.30
2019-05-20T18:32:41.350Z,31.48
2019-05-20T18:35:11.100Z,20.77
2019-05-20T18:37:40.569Z,22.73
2019-05-20T18:40:14.525Z,26.02
2019-05-20T18:42:41.738Z,22.98
2019-05-20T18:45:11.592Z,28.45
2019-05-20T18:47:41.138Z,22.52
2019-05-20T18:50:11.118Z,31.27
2019-05-20T18:52:40.604Z,22.10
2019-05-20T18:55:10.060Z,26.00
2019-05-20T18:57:39.652Z,30.50
2019-05-20T19:00:10.477Z,26.83
2019-05-20T19:02:40.006Z,29.87
2019-05-20T19:05:10.615Z,27.17
2019-05-20T19:07:40.403Z,28.85
2019-05-20T19:10:11.440Z,24.50
2019-05-20T19:12:41.105Z,23.30
2019-05-20T19:15:11.154Z,25.37
2019-05-20T19:17:40.683Z,22.87
2019-05-20T19:20:10.152Z,34.38
2019-05-20T19:22:39.616Z,24.90
2019-05-20T19:25:09.294Z,25.35
2019-05-20T19:27:38.888Z,19.85
2019-05-20T19:30:08.744Z,24.45
2019-05-20T19:32:38.162Z,25.23
2019-05-20T19:35:08.973Z,23.90
2019-05-20T19:37:38.652Z,26.17
2019-05-20T19:40:09.034Z,30.68
2019-05-20T19:42:39.102Z,34.08
2019-05-20T19:45:08.822Z,32.05
2019-05-20T19:47:38.268Z,29.07
2019-05-20T19:50:08.252Z,28.80
2019-05-20T19:52:37.705Z,25.97
2019-05-20T19:55:07.893Z,28.10
2019-05-20T19:57:37.361Z,28.20
2019-05-20T20:00:07.181Z,28.85
2019-05-20T20:02:36.637Z,29.00
2019-05-20T20:05:06.707Z,36.20
2019-05-20T20:07:36.133Z,35.48
2019-05-20T20:10:05.748Z,30.72
2019-05-20T20:12:35.286Z,29.33
2019-05-20T20:15:05.493Z,24.72
2019-05-20T20:17:34.970Z,35.48
2019-05-20T20:20:04.789Z,29.27
2019-05-20T20:22:34.263Z,32.10
2019-05-20T20:25:03.794Z,30.50
2019-05-20T20:27:33.409Z,45.85
2019-05-20T20:30:02.841Z,46.68
2019-05-20T20:32:37.982Z,42.90
2019-05-20T20:35:03.392Z,41.50
2019-05-20T20:37:32.820Z,39.30
2019-05-20T20:40:02.252Z,32.25
2019-05-20T20:42:31.687Z,35.53
2019-05-20T20:45:01.089Z,34.05
2019-05-20T20:47:41.219Z,39.67
2019-05-20T20:50:01.711Z,36.08
2019-05-20T20:52:32.570Z,45.57
2019-05-20T20:55:02.018Z,60.65
2019-05-20T20:57:31.458Z,65.90
2019-05-20T21:00:00.895Z,60.10
2019-05-20T21:02:30.377Z,45.63
2019-05-20T21:04:59.796Z,45.77
2019-05-20T21:07:29.271Z,45.28
2019-05-20T21:09:58.695Z,44.08
2019-05-20T21:12:28.243Z,42.97
2019-05-20T21:14:57.678Z,34.90
2019-05-20T21:17:27.104Z,34.50
2019-05-20T21:19:56.514Z,38.63
2019-05-20T21:22:25.995Z,38.08
2019-05-20T21:24:55.438Z,37.00
2019-05-20T21:27:24.898Z,42.10
2019-05-20T21:29:54.314Z,40.43
2019-05-20T21:32:23.733Z,35.85
2019-05-20T21:34:53.190Z,38.20
2019-05-20T21:37:22.584Z,30.70
2019-05-20T21:39:52.050Z,37.45
2019-05-20T21:42:21.610Z,34.35
2019-05-20T21:44:51.042Z,34.25
2019-05-20T21:47:20.491Z,37.35
2019-05-20T21:49:50.028Z,34.80
2019-05-20T21:52:19.437Z,41.40
2019-05-20T21:54:48.898Z,37.73
2019-05-20T21:57:18.301Z,39.97
2019-05-20T21:59:47.755Z,38.02
2019-05-20T22:02:17.194Z,37.63
2019-05-20T22:04:46.645Z,39.53
2019-05-20T22:07:16.026Z,37.75
2019-05-20T22:09:45.508Z,37.88
2019-05-20T22:12:14.961Z,37.97
2019-05-20T22:14:44.349Z,37.83
2019-05-20T22:17:13.889Z,42.58
2019-05-20T22:19:43.309Z,37.17
2019-05-20T22:22:20.381Z,36.38
2019-05-20T22:24:49.880Z,32.83
2019-05-20T22:27:19.305Z,34.55
2019-05-20T22:29:48.820Z,33.60
2019-05-20T22:32:18.278Z,34.92
2019-05-20T22:34:53.473Z,29.90
2019-05-20T22:37:18.788Z,38.10
2019-05-20T22:39:48.195Z,29.57
2019-05-20T22:42:17.616Z,37.45
2019-05-20T22:44:47.047Z,32.03
2019-05-20T22:47:16.489Z,26.60
2019-05-20T22:49:45.918Z,29.80
2019-05-20T22:52:15.360Z,32.15
2019-05-20T22:54:44.768Z,26.50
2019-05-20T22:57:14.180Z,30.05
2019-05-20T22:59:43.613Z,27.85
2019-05-20T23:02:13.056Z,24.80
2019-05-20T23:04:42.472Z,25.68
2019-05-20T23:07:11.913Z,22.75
2019-05-20T23:09:41.350Z,21.55
2019-05-20T23:12:10.816Z,21.05
2019-05-20T23:14:40.408Z,19.98
2019-05-20T23:17:09.882Z,21.82
2019-05-20T23:19:39.320Z,21.15
2019-05-20T23:22:08.741Z,20.68
2019-05-20T23:24:38.252Z,19.52
2019-05-20T23:27:07.687Z,22.53
2019-05-20T23:29:37.148Z,18.50
2019-05-20T23:32:06.604Z,18.95
2019-05-20T23:34:36.114Z,20.15
2019-05-20T23:37:05.615Z,18.12
2019-05-20T23:39:35.020Z,20.17
2019-05-20T23:42:04.621Z,17.10
2019-05-20T23:44:34.076Z,17.80
2019-05-20T23:47:03.529Z,22.15
2019-05-20T23:49:33.011Z,16.07
2019-05-20T23:52:02.435Z,16.57
2019-05-20T23:54:31.889Z,16.90
2019-05-20T23:57:01.400Z,18.95
2019-05-20T23:59:30.883Z,14.60
